sensor_id;sensor_type;location;lat;lon;timestamp;P1;durP1;ratioP1;P2;durP2;ratioP2
18425;SDS011;9340;48.756;9.226;2022-12-08T00:01:36;7.80;;;6.97;;
18425;SDS011;9340;48.756;9.226;2022-12-08T00:04:03;9.53;;;7.20;;
18425;SDS011;9340;48.756;9.226;2022-12-08T00:06:32;7.47;;;6.40;;
18425;SDS011;9340;48.756;9.226;2022-12-08T00:09:18;7.50;;;6.13;;
18425;SDS011;9340;48.756;9.226;2022-12-08T00:11:48;10.00;;;6.43;;
18425;SDS011;9340;48.756;9.226;2022-12-08T00:14:24;8.50;;;6.87;;
18425;SDS011;9340;48.756;9.226;2022-12-08T00:16:53;9.63;;;7.17;;
18425;SDS011;9340;48.756;9.226;2022-12-08T00:19:20;8.10;;;6.60;;
18425;SDS011;9340;48.756;9.226;2022-12-08T00:21:48;8.23;;;6.87;;
18425;SDS011;9340;48.756;9.226;2022-12-08T00:24:15;6.60;;;5.90;;
18425;SDS011;9340;48.756;9.226;2022-12-08T00:26:42;9.47;;;6.60;;
18425;SDS011;9340;48.756;9.226;2022-12-08T00:29:11;7.23;;;6.53;;
18425;SDS011;9340;48.756;9.226;2022-12-08T00:31:38;8.83;;;6.77;;
18425;SDS011;9340;48.756;9.226;2022-12-08T00:34:06;6.70;;;5.97;;
18425;SDS011;9340;48.756;9.226;2022-12-08T00:36:33;8.87;;;6.63;;
18425;SDS011;9340;48.756;9.226;2022-12-08T00:39:00;7.83;;;6.47;;
18425;SDS011;9340;48.756;9.226;2022-12-08T00:41:27;7.83;;;6.67;;
18425;SDS011;9340;48.756;9.226;2022-12-08T00:44:13;8.93;;;6.30;;
18425;SDS011;9340;48.756;9.226;2022-12-08T00:46:43;7.40;;;5.97;;
18425;SDS011;9340;48.756;9.226;2022-12-08T00:49:10;6.13;;;5.40;;
18425;SDS011;9340;48.756;9.226;2022-12-08T00:51:37;8.17;;;6.40;;
18425;SDS011;9340;48.756;9.226;2022-12-08T00:54:04;8.63;;;6.67;;
18425;SDS011;9340;48.756;9.226;2022-12-08T00:56:31;9.63;;;7.10;;
18425;SDS011;9340;48.756;9.226;2022-12-08T00:58:59;7.10;;;5.93;;
18425;SDS011;9340;48.756;9.226;2022-12-08T01:01:28;7.97;;;6.53;;
18425;SDS011;9340;48.756;9.226;2022-12-08T01:03:55;8.40;;;6.63;;
18425;SDS011;9340;48.756;9.226;2022-12-08T01:06:22;8.20;;;6.33;;
18425;SDS011;9340;48.756;9.226;2022-12-08T01:08:49;7.53;;;6.20;;
18425;SDS011;9340;48.756;9.226;2022-12-08T01:11:17;8.20;;;6.13;;
18425;SDS011;9340;48.756;9.226;2022-12-08T01:13:44;7.33;;;6.13;;
18425;SDS011;9340;48.756;9.226;2022-12-08T01:16:17;8.13;;;6.30;;
18425;SDS011;9340;48.756;9.226;2022-12-08T01:18:46;7.37;;;6.13;;
18425;SDS011;9340;48.756;9.226;2022-12-08T01:21:13;7.13;;;6.10;;
18425;SDS011;9340;48.756;9.226;2022-12-08T01:23:41;8.73;;;6.53;;
18425;SDS011;9340;48.756;9.226;2022-12-08T01:26:09;8.53;;;6.60;;
18425;SDS011;9340;48.756;9.226;2022-12-08T01:28:38;8.23;;;6.70;;
18425;SDS011;9340;48.756;9.226;2022-12-08T01:31:09;9.37;;;7.10;;
18425;SDS011;9340;48.756;9.226;2022-12-08T01:33:38;8.80;;;6.37;;
18425;SDS011;9340;48.756;9.226;2022-12-08T01:36:07;6.60;;;5.90;;
18425;SDS011;9340;48.756;9.226;2022-12-08T01:38:35;9.30;;;6.53;;
18425;SDS011;9340;48.756;9.226;2022-12-08T01:41:02;8.17;;;6.87;;
18425;SDS011;9340;48.756;9.226;2022-12-08T01:43:51;8.80;;;6.47;;
18425;SDS011;9340;48.756;9.226;2022-12-08T01:46:21;9.23;;;6.17;;
18425;SDS011;9340;48.756;9.226;2022-12-08T01:48:49;7.43;;;6.23;;
18425;SDS011;9340;48.756;9.226;2022-12-08T01:51:21;9.77;;;6.40;;
18425;SDS011;9340;48.756;9.226;2022-12-08T01:53:48;6.73;;;5.67;;
18425;SDS011;9340;48.756;9.226;2022-12-08T01:56:17;8.57;;;5.70;;
18425;SDS011;9340;48.756;9.226;2022-12-08T01:58:51;7.93;;;6.70;;
18425;SDS011;9340;48.756;9.226;2022-12-08T02:01:20;8.00;;;5.97;;
18425;SDS011;9340;48.756;9.226;2022-12-08T02:03:49;7.77;;;5.90;;
18425;SDS011;9340;48.756;9.226;2022-12-08T02:06:22;9.13;;;6.90;;
18425;SDS011;9340;48.756;9.226;2022-12-08T02:08:49;7.50;;;6.20;;
18425;SDS011;9340;48.756;9.226;2022-12-08T02:11:19;8.90;;;6.03;;
18425;SDS011;9340;48.756;9.226;2022-12-08T02:13:46;7.57;;;6.57;;
18425;SDS011;9340;48.756;9.226;2022-12-08T02:16:19;11.43;;;7.43;;
18425;SDS011;9340;48.756;9.226;2022-12-08T02:19:04;9.17;;;6.47;;
18425;SDS011;9340;48.756;9.226;2022-12-08T02:21:50;8.33;;;6.83;;
18425;SDS011;9340;48.756;9.226;2022-12-08T02:24:27;9.60;;;7.00;;
18425;SDS011;9340;48.756;9.226;2022-12-08T02:27:08;9.13;;;6.53;;
18425;SDS011;9340;48.756;9.226;2022-12-08T02:36:09;8.07;;;6.93;;
18425;SDS011;9340;48.756;9.226;2022-12-08T02:38:44;9.60;;;6.60;;
18425;SDS011;9340;48.756;9.226;2022-12-08T02:41:22;7.73;;;6.40;;
18425;SDS011;9340;48.756;9.226;2022-12-08T02:43:56;7.50;;;6.00;;
18425;SDS011;9340;48.756;9.226;2022-12-08T02:46:30;9.27;;;6.87;;
18425;SDS011;9340;48.756;9.226;2022-12-08T02:49:00;9.90;;;7.07;;
18425;SDS011;9340;48.756;9.226;2022-12-08T02:51:28;6.60;;;5.73;;
18425;SDS011;9340;48.756;9.226;2022-12-08T02:53:55;8.07;;;6.13;;
18425;SDS011;9340;48.756;9.226;2022-12-08T02:56:29;7.60;;;6.27;;
18425;SDS011;9340;48.756;9.226;2022-12-08T03:02:07;7.30;;;6.10;;
18425;SDS011;9340;48.756;9.226;2022-12-08T03:04:50;8.60;;;6.63;;
18425;SDS011;9340;48.756;9.226;2022-12-08T03:07:24;9.97;;;7.30;;
18425;SDS011;9340;48.756;9.226;2022-12-08T03:09:59;8.33;;;7.03;;
18425;SDS011;9340;48.756;9.226;2022-12-08T03:12:33;8.83;;;6.47;;
18425;SDS011;9340;48.756;9.226;2022-12-08T03:15:05;8.57;;;5.83;;
18425;SDS011;9340;48.756;9.226;2022-12-08T03:17:34;8.70;;;7.13;;
18425;SDS011;9340;48.756;9.226;2022-12-08T03:20:07;9.87;;;7.07;;
18425;SDS011;9340;48.756;9.226;2022-12-08T03:22:37;8.43;;;6.93;;
18425;SDS011;9340;48.756;9.226;2022-12-08T03:25:07;7.43;;;5.73;;
18425;SDS011;9340;48.756;9.226;2022-12-08T03:27:37;9.60;;;6.87;;
18425;SDS011;9340;48.756;9.226;2022-12-08T03:30:05;10.83;;;7.83;;
18425;SDS011;9340;48.756;9.226;2022-12-08T03:32:33;9.43;;;6.63;;
18425;SDS011;9340;48.756;9.226;2022-12-08T03:35:03;9.67;;;7.00;;
18425;SDS011;9340;48.756;9.226;2022-12-08T03:37:34;9.30;;;7.40;;
18425;SDS011;9340;48.756;9.226;2022-12-08T03:40:02;9.17;;;7.17;;
18425;SDS011;9340;48.756;9.226;2022-12-08T03:42:29;8.53;;;6.37;;
18425;SDS011;9340;48.756;9.226;2022-12-08T03:44:56;9.17;;;6.97;;
18425;SDS011;9340;48.756;9.226;2022-12-08T03:47:24;10.00;;;7.30;;
18425;SDS011;9340;48.756;9.226;2022-12-08T03:49:51;8.23;;;6.60;;
18425;SDS011;9340;48.756;9.226;2022-12-08T03:52:19;8.63;;;7.17;;
18425;SDS011;9340;48.756;9.226;2022-12-08T03:54:48;9.80;;;7.40;;
18425;SDS011;9340;48.756;9.226;2022-12-08T03:57:15;10.73;;;6.40;;
18425;SDS011;9340;48.756;9.226;2022-12-08T03:59:42;11.83;;;7.40;;
18425;SDS011;9340;48.756;9.226;2022-12-08T04:02:08;8.03;;;6.77;;
18425;SDS011;9340;48.756;9.226;2022-12-08T04:04:35;9.37;;;6.83;;
18425;SDS011;9340;48.756;9.226;2022-12-08T04:07:02;6.37;;;5.33;;
18425;SDS011;9340;48.756;9.226;2022-12-08T04:09:31;8.83;;;6.77;;
18425;SDS011;9340;48.756;9.226;2022-12-08T04:11:58;8.60;;;6.53;;
18425;SDS011;9340;48.756;9.226;2022-12-08T04:14:25;8.43;;;6.80;;
18425;SDS011;9340;48.756;9.226;2022-12-08T04:16:51;7.73;;;6.17;;
18425;SDS011;9340;48.756;9.226;2022-12-08T04:19:18;9.10;;;6.80;;
18425;SDS011;9340;48.756;9.226;2022-12-08T04:21:45;9.53;;;7.33;;
18425;SDS011;9340;48.756;9.226;2022-12-08T04:24:12;8.80;;;6.30;;
18425;SDS011;9340;48.756;9.226;2022-12-08T04:26:40;6.80;;;6.03;;
18425;SDS011;9340;48.756;9.226;2022-12-08T04:29:07;9.60;;;7.47;;
18425;SDS011;9340;48.756;9.226;2022-12-08T04:31:34;9.70;;;6.90;;
18425;SDS011;9340;48.756;9.226;2022-12-08T04:34:02;9.63;;;6.97;;
18425;SDS011;9340;48.756;9.226;2022-12-08T04:36:29;8.17;;;7.03;;
18425;SDS011;9340;48.756;9.226;2022-12-08T04:38:55;8.23;;;6.43;;
18425;SDS011;9340;48.756;9.226;2022-12-08T04:41:22;7.53;;;6.37;;
18425;SDS011;9340;48.756;9.226;2022-12-08T04:43:50;9.77;;;7.13;;
18425;SDS011;9340;48.756;9.226;2022-12-08T04:46:17;8.03;;;6.40;;
18425;SDS011;9340;48.756;9.226;2022-12-08T04:48:44;9.30;;;6.57;;
18425;SDS011;9340;48.756;9.226;2022-12-08T04:51:13;8.60;;;6.20;;
18425;SDS011;9340;48.756;9.226;2022-12-08T04:53:41;8.30;;;6.13;;
18425;SDS011;9340;48.756;9.226;2022-12-08T04:56:10;6.87;;;6.13;;
18425;SDS011;9340;48.756;9.226;2022-12-08T04:58:37;9.53;;;6.67;;
18425;SDS011;9340;48.756;9.226;2022-12-08T05:01:06;11.77;;;7.60;;
18425;SDS011;9340;48.756;9.226;2022-12-08T05:03:33;8.30;;;6.50;;
18425;SDS011;9340;48.756;9.226;2022-12-08T05:06:00;10.03;;;6.73;;
18425;SDS011;9340;48.756;9.226;2022-12-08T05:08:27;9.43;;;6.67;;
18425;SDS011;9340;48.756;9.226;2022-12-08T05:11:00;9.37;;;6.73;;
18425;SDS011;9340;48.756;9.226;2022-12-08T05:13:27;10.23;;;6.10;;
18425;SDS011;9340;48.756;9.226;2022-12-08T05:16:00;10.57;;;7.83;;
18425;SDS011;9340;48.756;9.226;2022-12-08T05:18:29;10.60;;;7.50;;
18425;SDS011;9340;48.756;9.226;2022-12-08T05:20:56;10.00;;;7.63;;
18425;SDS011;9340;48.756;9.226;2022-12-08T05:23:23;8.20;;;6.80;;
18425;SDS011;9340;48.756;9.226;2022-12-08T05:25:50;12.10;;;7.77;;
18425;SDS011;9340;48.756;9.226;2022-12-08T05:28:17;9.27;;;7.03;;
18425;SDS011;9340;48.756;9.226;2022-12-08T05:30:44;11.33;;;8.10;;
18425;SDS011;9340;48.756;9.226;2022-12-08T05:33:11;9.50;;;7.13;;
18425;SDS011;9340;48.756;9.226;2022-12-08T05:35:39;10.67;;;6.83;;
18425;SDS011;9340;48.756;9.226;2022-12-08T05:38:07;10.10;;;7.50;;
18425;SDS011;9340;48.756;9.226;2022-12-08T05:40:35;9.10;;;7.17;;
18425;SDS011;9340;48.756;9.226;2022-12-08T05:43:02;8.40;;;7.10;;
18425;SDS011;9340;48.756;9.226;2022-12-08T05:45:30;8.47;;;6.97;;
18425;SDS011;9340;48.756;9.226;2022-12-08T05:47:56;7.73;;;6.27;;
18425;SDS011;9340;48.756;9.226;2022-12-08T05:50:23;10.40;;;7.33;;
18425;SDS011;9340;48.756;9.226;2022-12-08T05:52:51;8.60;;;6.87;;
18425;SDS011;9340;48.756;9.226;2022-12-08T05:55:18;9.33;;;7.03;;
18425;SDS011;9340;48.756;9.226;2022-12-08T05:57:45;10.90;;;6.70;;
18425;SDS011;9340;48.756;9.226;2022-12-08T06:00:12;8.03;;;6.43;;
18425;SDS011;9340;48.756;9.226;2022-12-08T06:02:40;8.83;;;6.60;;
18425;SDS011;9340;48.756;9.226;2022-12-08T06:05:07;7.83;;;6.40;;
18425;SDS011;9340;48.756;9.226;2022-12-08T06:07:34;9.53;;;7.10;;
18425;SDS011;9340;48.756;9.226;2022-12-08T06:10:03;9.60;;;6.70;;
18425;SDS011;9340;48.756;9.226;2022-12-08T06:12:31;10.90;;;6.60;;
18425;SDS011;9340;48.756;9.226;2022-12-08T06:14:58;10.00;;;6.93;;
18425;SDS011;9340;48.756;9.226;2022-12-08T06:17:25;9.03;;;6.70;;
18425;SDS011;9340;48.756;9.226;2022-12-08T06:19:51;9.17;;;7.10;;
18425;SDS011;9340;48.756;9.226;2022-12-08T06:22:18;9.50;;;7.80;;
18425;SDS011;9340;48.756;9.226;2022-12-08T06:24:45;9.27;;;6.63;;
18425;SDS011;9340;48.756;9.226;2022-12-08T06:27:14;9.30;;;6.33;;
18425;SDS011;9340;48.756;9.226;2022-12-08T06:29:40;8.93;;;6.63;;
18425;SDS011;9340;48.756;9.226;2022-12-08T06:32:07;9.70;;;6.77;;
18425;SDS011;9340;48.756;9.226;2022-12-08T06:34:34;8.37;;;6.57;;
18425;SDS011;9340;48.756;9.226;2022-12-08T06:37:01;9.70;;;7.30;;
18425;SDS011;9340;48.756;9.226;2022-12-08T06:39:28;8.63;;;6.23;;
18425;SDS011;9340;48.756;9.226;2022-12-08T06:41:55;9.30;;;6.60;;
18425;SDS011;9340;48.756;9.226;2022-12-08T06:44:40;8.50;;;5.63;;
18425;SDS011;9340;48.756;9.226;2022-12-08T06:47:07;10.87;;;6.27;;
18425;SDS011;9340;48.756;9.226;2022-12-08T06:49:34;8.13;;;6.10;;
18425;SDS011;9340;48.756;9.226;2022-12-08T06:52:01;7.60;;;5.70;;
18425;SDS011;9340;48.756;9.226;2022-12-08T06:54:28;8.03;;;6.30;;
18425;SDS011;9340;48.756;9.226;2022-12-08T06:56:54;7.50;;;5.73;;
18425;SDS011;9340;48.756;9.226;2022-12-08T06:59:21;7.97;;;5.67;;
18425;SDS011;9340;48.756;9.226;2022-12-08T07:01:51;7.47;;;5.50;;
18425;SDS011;9340;48.756;9.226;2022-12-08T07:04:18;7.00;;;5.60;;
18425;SDS011;9340;48.756;9.226;2022-12-08T07:06:45;7.13;;;5.23;;
18425;SDS011;9340;48.756;9.226;2022-12-08T07:09:11;5.40;;;4.63;;
18425;SDS011;9340;48.756;9.226;2022-12-08T07:11:38;7.57;;;5.30;;
18425;SDS011;9340;48.756;9.226;2022-12-08T07:14:05;6.30;;;4.97;;
18425;SDS011;9340;48.756;9.226;2022-12-08T07:16:32;7.30;;;5.23;;
18425;SDS011;9340;48.756;9.226;2022-12-08T07:19:00;7.87;;;5.63;;
18425;SDS011;9340;48.756;9.226;2022-12-08T07:21:27;12.70;;;7.93;;
18425;SDS011;9340;48.756;9.226;2022-12-08T07:23:54;13.87;;;7.13;;
18425;SDS011;9340;48.756;9.226;2022-12-08T07:26:21;7.87;;;6.20;;
18425;SDS011;9340;48.756;9.226;2022-12-08T07:28:47;7.57;;;5.87;;
18425;SDS011;9340;48.756;9.226;2022-12-08T07:31:15;7.93;;;5.80;;
18425;SDS011;9340;48.756;9.226;2022-12-08T07:33:43;11.03;;;5.80;;
18425;SDS011;9340;48.756;9.226;2022-12-08T07:36:12;9.20;;;6.10;;
18425;SDS011;9340;48.756;9.226;2022-12-08T07:38:39;8.80;;;6.37;;
18425;SDS011;9340;48.756;9.226;2022-12-08T07:41:09;11.43;;;6.03;;
18425;SDS011;9340;48.756;9.226;2022-12-08T07:43:37;8.37;;;5.93;;
18425;SDS011;9340;48.756;9.226;2022-12-08T07:46:04;10.27;;;5.57;;
18425;SDS011;9340;48.756;9.226;2022-12-08T07:48:31;6.50;;;4.97;;
18425;SDS011;9340;48.756;9.226;2022-12-08T07:50:59;8.33;;;5.30;;
18425;SDS011;9340;48.756;9.226;2022-12-08T07:53:28;8.37;;;6.13;;
18425;SDS011;9340;48.756;9.226;2022-12-08T07:55:55;8.20;;;5.63;;
18425;SDS011;9340;48.756;9.226;2022-12-08T07:58:22;9.30;;;5.67;;
18425;SDS011;9340;48.756;9.226;2022-12-08T08:00:49;10.33;;;5.57;;
18425;SDS011;9340;48.756;9.226;2022-12-08T08:03:16;10.93;;;6.50;;
18425;SDS011;9340;48.756;9.226;2022-12-08T08:05:43;8.97;;;5.90;;
18425;SDS011;9340;48.756;9.226;2022-12-08T08:08:12;9.87;;;7.23;;
18425;SDS011;9340;48.756;9.226;2022-12-08T08:10:40;10.87;;;7.23;;
18425;SDS011;9340;48.756;9.226;2022-12-08T08:13:08;10.00;;;6.70;;
18425;SDS011;9340;48.756;9.226;2022-12-08T08:15:35;10.03;;;7.00;;
18425;SDS011;9340;48.756;9.226;2022-12-08T08:18:02;9.90;;;6.90;;
18425;SDS011;9340;48.756;9.226;2022-12-08T08:20:29;9.20;;;6.27;;
18425;SDS011;9340;48.756;9.226;2022-12-08T08:22:56;10.90;;;6.73;;
18425;SDS011;9340;48.756;9.226;2022-12-08T08:25:23;8.33;;;6.43;;
18425;SDS011;9340;48.756;9.226;2022-12-08T08:27:51;11.13;;;6.30;;
18425;SDS011;9340;48.756;9.226;2022-12-08T08:30:19;10.20;;;7.63;;
18425;SDS011;9340;48.756;9.226;2022-12-08T08:32:46;8.90;;;6.93;;
18425;SDS011;9340;48.756;9.226;2022-12-08T08:35:13;10.60;;;8.37;;
18425;SDS011;9340;48.756;9.226;2022-12-08T08:37:40;12.93;;;11.27;;
18425;SDS011;9340;48.756;9.226;2022-12-08T08:40:07;10.20;;;8.73;;
18425;SDS011;9340;48.756;9.226;2022-12-08T08:42:34;11.37;;;9.60;;
18425;SDS011;9340;48.756;9.226;2022-12-08T08:45:03;13.30;;;7.47;;
18425;SDS011;9340;48.756;9.226;2022-12-08T08:47:30;11.47;;;8.60;;
18425;SDS011;9340;48.756;9.226;2022-12-08T08:49:57;9.20;;;7.37;;
18425;SDS011;9340;48.756;9.226;2022-12-08T08:52:24;9.00;;;7.83;;
18425;SDS011;9340;48.756;9.226;2022-12-08T08:54:51;13.17;;;9.63;;
18425;SDS011;9340;48.756;9.226;2022-12-08T08:57:18;15.53;;;10.23;;
18425;SDS011;9340;48.756;9.226;2022-12-08T08:59:45;14.00;;;9.80;;
18425;SDS011;9340;48.756;9.226;2022-12-08T09:02:14;12.67;;;8.60;;
18425;SDS011;9340;48.756;9.226;2022-12-08T09:04:42;10.47;;;7.57;;
18425;SDS011;9340;48.756;9.226;2022-12-08T09:07:09;9.70;;;8.03;;
18425;SDS011;9340;48.756;9.226;2022-12-08T09:09:37;10.23;;;8.67;;
18425;SDS011;9340;48.756;9.226;2022-12-08T09:12:05;17.13;;;10.77;;
18425;SDS011;9340;48.756;9.226;2022-12-08T09:14:31;12.57;;;10.20;;
18425;SDS011;9340;48.756;9.226;2022-12-08T09:16:59;15.50;;;9.77;;
18425;SDS011;9340;48.756;9.226;2022-12-08T09:19:27;14.70;;;9.80;;
18425;SDS011;9340;48.756;9.226;2022-12-08T09:21:54;14.47;;;9.73;;
18425;SDS011;9340;48.756;9.226;2022-12-08T09:24:21;15.07;;;10.53;;
18425;SDS011;9340;48.756;9.226;2022-12-08T09:26:48;13.47;;;10.87;;
18425;SDS011;9340;48.756;9.226;2022-12-08T09:29:15;14.67;;;10.00;;
18425;SDS011;9340;48.756;9.226;2022-12-08T09:31:42;12.87;;;10.73;;
18425;SDS011;9340;48.756;9.226;2022-12-08T09:34:09;13.93;;;9.37;;
18425;SDS011;9340;48.756;9.226;2022-12-08T09:36:39;11.00;;;9.33;;
18425;SDS011;9340;48.756;9.226;2022-12-08T09:39:06;12.90;;;9.97;;
18425;SDS011;9340;48.756;9.226;2022-12-08T09:41:33;17.13;;;11.40;;
18425;SDS011;9340;48.756;9.226;2022-12-08T09:44:05;19.17;;;13.13;;
18425;SDS011;9340;48.756;9.226;2022-12-08T09:46:46;30.93;;;18.80;;
18425;SDS011;9340;48.756;9.226;2022-12-08T09:49:17;17.60;;;12.73;;
18425;SDS011;9340;48.756;9.226;2022-12-08T09:51:48;30.27;;;22.20;;
18425;SDS011;9340;48.756;9.226;2022-12-08T09:54:16;52.93;;;38.00;;
18425;SDS011;9340;48.756;9.226;2022-12-08T09:56:45;40.27;;;27.97;;
18425;SDS011;9340;48.756;9.226;2022-12-08T09:59:18;17.33;;;12.20;;
18425;SDS011;9340;48.756;9.226;2022-12-08T10:01:48;20.17;;;15.17;;
18425;SDS011;9340;48.756;9.226;2022-12-08T10:04:18;57.63;;;38.17;;
18425;SDS011;9340;48.756;9.226;2022-12-08T10:06:52;14.73;;;11.73;;
18425;SDS011;9340;48.756;9.226;2022-12-08T10:09:30;13.00;;;9.87;;
18425;SDS011;9340;48.756;9.226;2022-12-08T10:12:06;10.03;;;8.37;;
18425;SDS011;9340;48.756;9.226;2022-12-08T10:14:40;23.97;;;19.17;;
18425;SDS011;9340;48.756;9.226;2022-12-08T10:17:11;22.17;;;17.30;;
18425;SDS011;9340;48.756;9.226;2022-12-08T10:19:45;15.73;;;12.57;;
18425;SDS011;9340;48.756;9.226;2022-12-08T10:22:16;9.47;;;6.90;;
18425;SDS011;9340;48.756;9.226;2022-12-08T10:24:49;11.80;;;10.53;;
18425;SDS011;9340;48.756;9.226;2022-12-08T10:27:22;8.00;;;7.20;;
18425;SDS011;9340;48.756;9.226;2022-12-08T10:29:50;7.87;;;6.37;;
18425;SDS011;9340;48.756;9.226;2022-12-08T10:32:17;8.07;;;6.07;;
18425;SDS011;9340;48.756;9.226;2022-12-08T10:35:00;7.93;;;6.00;;
18425;SDS011;9340;48.756;9.226;2022-12-08T10:37:33;7.77;;;6.30;;
18425;SDS011;9340;48.756;9.226;2022-12-08T10:40:04;7.70;;;6.57;;
18425;SDS011;9340;48.756;9.226;2022-12-08T10:42:35;7.63;;;6.40;;
18425;SDS011;9340;48.756;9.226;2022-12-08T10:45:14;8.67;;;6.03;;
18425;SDS011;9340;48.756;9.226;2022-12-08T10:47:49;7.43;;;5.63;;
18425;SDS011;9340;48.756;9.226;2022-12-08T10:50:23;6.17;;;5.27;;
18425;SDS011;9340;48.756;9.226;2022-12-08T10:53:00;6.43;;;5.57;;
18425;SDS011;9340;48.756;9.226;2022-12-08T10:55:38;6.57;;;5.53;;
18425;SDS011;9340;48.756;9.226;2022-12-08T10:58:27;7.83;;;6.23;;
18425;SDS011;9340;48.756;9.226;2022-12-08T11:00:58;7.97;;;6.30;;
18425;SDS011;9340;48.756;9.226;2022-12-08T11:03:29;6.40;;;5.67;;
18425;SDS011;9340;48.756;9.226;2022-12-08T11:05:59;5.50;;;5.00;;
18425;SDS011;9340;48.756;9.226;2022-12-08T11:08:37;5.83;;;5.23;;
18425;SDS011;9340;48.756;9.226;2022-12-08T11:11:12;7.13;;;5.70;;
18425;SDS011;9340;48.756;9.226;2022-12-08T11:13:39;6.73;;;4.57;;
18425;SDS011;9340;48.756;9.226;2022-12-08T11:16:07;5.63;;;5.03;;
18425;SDS011;9340;48.756;9.226;2022-12-08T11:18:39;5.53;;;4.90;;
18425;SDS011;9340;48.756;9.226;2022-12-08T11:21:09;5.83;;;4.80;;
18425;SDS011;9340;48.756;9.226;2022-12-08T11:23:40;6.37;;;4.67;;
18425;SDS011;9340;48.756;9.226;2022-12-08T11:26:13;5.27;;;4.43;;
18425;SDS011;9340;48.756;9.226;2022-12-08T11:28:47;5.30;;;4.67;;
18425;SDS011;9340;48.756;9.226;2022-12-08T11:31:25;5.80;;;5.13;;
18425;SDS011;9340;48.756;9.226;2022-12-08T11:33:55;6.07;;;5.13;;
18425;SDS011;9340;48.756;9.226;2022-12-08T11:36:22;5.33;;;4.60;;
18425;SDS011;9340;48.756;9.226;2022-12-08T11:38:54;7.03;;;4.90;;
18425;SDS011;9340;48.756;9.226;2022-12-08T11:41:23;5.43;;;4.87;;
18425;SDS011;9340;48.756;9.226;2022-12-08T11:43:54;5.67;;;4.50;;
18425;SDS011;9340;48.756;9.226;2022-12-08T11:46:28;4.80;;;4.33;;
18425;SDS011;9340;48.756;9.226;2022-12-08T11:49:02;4.80;;;3.97;;
18425;SDS011;9340;48.756;9.226;2022-12-08T11:51:32;6.23;;;4.53;;
18425;SDS011;9340;48.756;9.226;2022-12-08T11:54:14;5.40;;;4.00;;
18425;SDS011;9340;48.756;9.226;2022-12-08T11:56:46;5.87;;;4.90;;
18425;SDS011;9340;48.756;9.226;2022-12-08T11:59:17;6.00;;;4.23;;
18425;SDS011;9340;48.756;9.226;2022-12-08T12:01:49;4.80;;;4.30;;
18425;SDS011;9340;48.756;9.226;2022-12-08T12:04:19;4.87;;;4.33;;
18425;SDS011;9340;48.756;9.226;2022-12-08T12:10:01;4.63;;;4.23;;
18425;SDS011;9340;48.756;9.226;2022-12-08T12:12:54;4.50;;;4.00;;
18425;SDS011;9340;48.756;9.226;2022-12-08T12:15:47;6.27;;;4.27;;
18425;SDS011;9340;48.756;9.226;2022-12-08T12:18:30;4.33;;;3.93;;
18425;SDS011;9340;48.756;9.226;2022-12-08T12:21:04;5.60;;;4.77;;
18425;SDS011;9340;48.756;9.226;2022-12-08T12:23:35;4.90;;;4.40;;
18425;SDS011;9340;48.756;9.226;2022-12-08T12:26:06;4.87;;;3.87;;
18425;SDS011;9340;48.756;9.226;2022-12-08T12:28:38;5.00;;;4.50;;
18425;SDS011;9340;48.756;9.226;2022-12-08T12:31:08;5.10;;;4.37;;
18425;SDS011;9340;48.756;9.226;2022-12-08T12:33:37;5.13;;;3.77;;
18425;SDS011;9340;48.756;9.226;2022-12-08T12:36:05;4.17;;;3.73;;
18425;SDS011;9340;48.756;9.226;2022-12-08T12:38:33;7.40;;;4.50;;
18425;SDS011;9340;48.756;9.226;2022-12-08T12:41:22;4.70;;;4.20;;
18425;SDS011;9340;48.756;9.226;2022-12-08T12:47:04;4.30;;;3.87;;
18425;SDS011;9340;48.756;9.226;2022-12-08T12:49:48;4.73;;;3.80;;
18425;SDS011;9340;48.756;9.226;2022-12-08T12:52:45;4.70;;;3.73;;
18425;SDS011;9340;48.756;9.226;2022-12-08T12:58:34;4.07;;;3.70;;
18425;SDS011;9340;48.756;9.226;2022-12-08T13:04:02;6.27;;;3.80;;
18425;SDS011;9340;48.756;9.226;2022-12-08T13:06:33;4.43;;;3.70;;
18425;SDS011;9340;48.756;9.226;2022-12-08T13:09:05;3.83;;;3.43;;
18425;SDS011;9340;48.756;9.226;2022-12-08T13:11:43;5.13;;;4.23;;
18425;SDS011;9340;48.756;9.226;2022-12-08T13:14:35;4.80;;;3.83;;
18425;SDS011;9340;48.756;9.226;2022-12-08T13:17:05;3.97;;;3.57;;
18425;SDS011;9340;48.756;9.226;2022-12-08T13:19:37;5.70;;;3.33;;
18425;SDS011;9340;48.756;9.226;2022-12-08T13:28:18;3.93;;;3.27;;
18425;SDS011;9340;48.756;9.226;2022-12-08T13:30:48;4.60;;;3.80;;
18425;SDS011;9340;48.756;9.226;2022-12-08T13:33:16;4.03;;;3.53;;
18425;SDS011;9340;48.756;9.226;2022-12-08T13:35:50;4.87;;;3.87;;
18425;SDS011;9340;48.756;9.226;2022-12-08T13:38:24;5.17;;;3.70;;
18425;SDS011;9340;48.756;9.226;2022-12-08T13:40:55;3.80;;;3.50;;
18425;SDS011;9340;48.756;9.226;2022-12-08T13:43:25;4.50;;;4.10;;
18425;SDS011;9340;48.756;9.226;2022-12-08T13:46:00;5.33;;;4.13;;
18425;SDS011;9340;48.756;9.226;2022-12-08T13:48:34;5.37;;;4.17;;
18425;SDS011;9340;48.756;9.226;2022-12-08T13:51:10;5.47;;;4.20;;
18425;SDS011;9340;48.756;9.226;2022-12-08T13:53:41;5.37;;;4.13;;
18425;SDS011;9340;48.756;9.226;2022-12-08T13:56:11;6.53;;;3.83;;
18425;SDS011;9340;48.756;9.226;2022-12-08T13:58:40;5.37;;;4.10;;
18425;SDS011;9340;48.756;9.226;2022-12-08T14:01:10;4.33;;;3.37;;
18425;SDS011;9340;48.756;9.226;2022-12-08T14:03:43;4.80;;;4.27;;
18425;SDS011;9340;48.756;9.226;2022-12-08T14:06:13;3.47;;;3.17;;
18425;SDS011;9340;48.756;9.226;2022-12-08T14:08:41;5.43;;;3.70;;
18425;SDS011;9340;48.756;9.226;2022-12-08T14:11:13;3.90;;;3.50;;
18425;SDS011;9340;48.756;9.226;2022-12-08T14:13:57;3.37;;;3.07;;
18425;SDS011;9340;48.756;9.226;2022-12-08T14:16:27;3.63;;;3.10;;
18425;SDS011;9340;48.756;9.226;2022-12-08T14:19:02;3.80;;;3.33;;
18425;SDS011;9340;48.756;9.226;2022-12-08T14:21:31;3.87;;;3.30;;
18425;SDS011;9340;48.756;9.226;2022-12-08T14:24:00;4.43;;;4.00;;
18425;SDS011;9340;48.756;9.226;2022-12-08T14:26:30;10.70;;;9.67;;
18425;SDS011;9340;48.756;9.226;2022-12-08T14:28:59;11.43;;;10.23;;
18425;SDS011;9340;48.756;9.226;2022-12-08T14:31:28;4.90;;;4.17;;
18425;SDS011;9340;48.756;9.226;2022-12-08T14:33:55;4.13;;;3.67;;
18425;SDS011;9340;48.756;9.226;2022-12-08T14:36:21;4.93;;;3.73;;
18425;SDS011;9340;48.756;9.226;2022-12-08T14:38:50;4.87;;;4.10;;
18425;SDS011;9340;48.756;9.226;2022-12-08T14:41:23;3.70;;;3.13;;
18425;SDS011;9340;48.756;9.226;2022-12-08T14:43:58;4.43;;;4.00;;
18425;SDS011;9340;48.756;9.226;2022-12-08T14:46:28;5.10;;;3.97;;
18425;SDS011;9340;48.756;9.226;2022-12-08T14:48:55;5.33;;;3.53;;
18425;SDS011;9340;48.756;9.226;2022-12-08T14:51:25;4.33;;;3.87;;
18425;SDS011;9340;48.756;9.226;2022-12-08T14:53:55;4.40;;;4.00;;
18425;SDS011;9340;48.756;9.226;2022-12-08T14:56:25;4.97;;;3.53;;
18425;SDS011;9340;48.756;9.226;2022-12-08T14:59:08;4.67;;;4.20;;
18425;SDS011;9340;48.756;9.226;2022-12-08T15:01:40;4.57;;;4.03;;
18425;SDS011;9340;48.756;9.226;2022-12-08T15:04:12;4.33;;;3.73;;
18425;SDS011;9340;48.756;9.226;2022-12-08T15:06:44;4.30;;;3.70;;
18425;SDS011;9340;48.756;9.226;2022-12-08T15:09:29;4.20;;;3.80;;
18425;SDS011;9340;48.756;9.226;2022-12-08T15:12:01;5.87;;;5.37;;
18425;SDS011;9340;48.756;9.226;2022-12-08T15:14:32;6.80;;;5.60;;
18425;SDS011;9340;48.756;9.226;2022-12-08T15:17:02;6.43;;;5.17;;
18425;SDS011;9340;48.756;9.226;2022-12-08T15:19:53;5.83;;;4.93;;
18425;SDS011;9340;48.756;9.226;2022-12-08T15:22:21;5.03;;;4.10;;
18425;SDS011;9340;48.756;9.226;2022-12-08T15:24:48;7.67;;;5.57;;
18425;SDS011;9340;48.756;9.226;2022-12-08T15:27:16;6.63;;;5.23;;
18425;SDS011;9340;48.756;9.226;2022-12-08T15:29:44;7.93;;;6.80;;
18425;SDS011;9340;48.756;9.226;2022-12-08T15:32:14;5.23;;;4.73;;
18425;SDS011;9340;48.756;9.226;2022-12-08T15:34:43;5.20;;;4.50;;
18425;SDS011;9340;48.756;9.226;2022-12-08T15:37:12;7.83;;;6.80;;
18425;SDS011;9340;48.756;9.226;2022-12-08T15:39:45;7.07;;;6.37;;
18425;SDS011;9340;48.756;9.226;2022-12-08T15:42:12;5.53;;;4.37;;
18425;SDS011;9340;48.756;9.226;2022-12-08T15:44:39;6.13;;;4.43;;